sensor_id;sensor_type;location;lat;lon;timestamp;pressure;altitude;pressure_sealevel;temperature;humidity
4830;BME280;2429;52.586;14.322;2022-09-03T21:01:24;101865.94;;;14.09;46.34
4830;BME280;2429;52.586;14.322;2022-09-03T21:06:32;101858.81;;;14.38;45.36
4830;BME280;2429;52.586;14.322;2022-09-03T21:14:08;101865.19;;;14.76;44.60
4830;BME280;2429;52.586;14.322;2022-09-03T21:24:21;101857.19;;;14.90;44.07
4830;BME280;2429;52.586;14.322;2022-09-03T21:26:58;101864.63;;;14.98;44.00
4830;BME280;2429;52.586;14.322;2022-09-03T21:29:28;101865.84;;;15.06;43.90
4830;BME280;2429;52.586;14.322;2022-09-03T21:34:30;101865.09;;;15.17;43.73
4830;BME280;2429;52.586;14.322;2022-09-03T21:37:02;101867.00;;;15.02;44.16
4830;BME280;2429;52.586;14.322;2022-09-03T21:39:31;101874.38;;;14.97;44.14
4830;BME280;2429;52.586;14.322;2022-09-03T21:42:08;101870.34;;;14.92;44.33
4830;BME280;2429;52.586;14.322;2022-09-03T21:47:22;101872.88;;;14.93;44.53
4830;BME280;2429;52.586;14.322;2022-09-03T21:50:03;101871.78;;;15.10;43.95
4830;BME280;2429;52.586;14.322;2022-09-03T21:52:40;101889.91;;;15.03;44.08
4830;BME280;2429;52.586;14.322;2022-09-03T21:55:18;101883.69;;;14.90;44.53
4830;BME280;2429;52.586;14.322;2022-09-03T21:57:56;101884.63;;;14.89;44.57
4830;BME280;2429;52.586;14.322;2022-09-03T22:00:26;101897.28;;;14.98;44.29
4830;BME280;2429;52.586;14.322;2022-09-03T22:02:58;101905.63;;;14.79;44.95
4830;BME280;2429;52.586;14.322;2022-09-03T22:05:27;101901.78;;;14.83;44.63
4830;BME280;2429;52.586;14.322;2022-09-03T22:15:26;101907.59;;;14.76;45.10
4830;BME280;2429;52.586;14.322;2022-09-03T22:20:25;101917.66;;;14.43;46.11
4830;BME280;2429;52.586;14.322;2022-09-03T22:23:13;101909.72;;;14.43;46.03
4830;BME280;2429;52.586;14.322;2022-09-03T22:28:21;101904.22;;;14.32;46.35
4830;BME280;2429;52.586;14.322;2022-09-03T22:31:03;101910.22;;;14.21;46.19
4830;BME280;2429;52.586;14.322;2022-09-03T22:33:34;101909.72;;;14.43;45.74
4830;BME280;2429;52.586;14.322;2022-09-03T22:36:19;101901.69;;;14.58;45.69
4830;BME280;2429;52.586;14.322;2022-09-03T22:49:33;101921.88;;;14.46;45.87
4830;BME280;2429;52.586;14.322;2022-09-03T22:52:07;101920.00;;;14.48;45.80
4830;BME280;2429;52.586;14.322;2022-09-03T22:54:50;101924.69;;;14.15;46.28
4830;BME280;2429;52.586;14.322;2022-09-03T22:57:23;101924.50;;;14.04;46.51
4830;BME280;2429;52.586;14.322;2022-09-03T23:00:04;101928.75;;;14.21;46.27
4830;BME280;2429;52.586;14.322;2022-09-03T23:02:33;101935.63;;;14.24;46.69
4830;BME280;2429;52.586;14.322;2022-09-03T23:10:08;101934.69;;;14.25;46.08
4830;BME280;2429;52.586;14.322;2022-09-03T23:12:39;101928.72;;;14.35;46.11
4830;BME280;2429;52.586;14.322;2022-09-03T23:15:13;101941.66;;;14.40;46.02
4830;BME280;2429;52.586;14.322;2022-09-03T23:17:49;101934.97;;;14.34;46.35
4830;BME280;2429;52.586;14.322;2022-09-03T23:20:20;101936.75;;;14.34;45.86
4830;BME280;2429;52.586;14.322;2022-09-03T23:22:50;101931.94;;;14.41;45.99
4830;BME280;2429;52.586;14.322;2022-09-03T23:25:44;101936.31;;;14.42;46.15
4830;BME280;2429;52.586;14.322;2022-09-03T23:28:24;101938.03;;;14.14;46.50
4830;BME280;2429;52.586;14.322;2022-09-03T23:30:54;101938.66;;;14.17;46.22
4830;BME280;2429;52.586;14.322;2022-09-03T23:33:28;101934.88;;;14.07;46.39
4830;BME280;2429;52.586;14.322;2022-09-03T23:35:56;101922.78;;;14.17;46.12
4830;BME280;2429;52.586;14.322;2022-09-03T23:40:54;101937.34;;;14.10;46.24
4830;BME280;2429;52.586;14.322;2022-09-03T23:46:41;101936.69;;;14.21;45.64
4830;BME280;2429;52.586;14.322;2022-09-03T23:51:19;101936.69;;;14.21;45.42
